This is the latest recevied weather packets stored in our database for station/object WZ9ZZZ-1. If no packets are shown the sender has not sent any weather packets the latest 10 day(s).
| Time | Temp. | Humidity | Pressure | Rain* | Wind** | Luminosity | Snow |
|---|---|---|---|---|---|---|---|
| 1777262684 | 25.56° C | 92% | 1013.1 hPa | 0 mm | - | 0 W/m² | - |
| 1777262380 | 25.56° C | 92% | 1013 hPa | 0 mm | - | 0 W/m² | - |
| 1777262077 | 25° C | 92% | 1013 hPa | 0 mm | - | 0 W/m² | - |
| 1777261774 | 25° C | 92% | 1012.8 hPa | 0 mm | - | 0 W/m² | - |
| 1777261470 | 25° C | 92% | 1012.5 hPa | 0 mm | - | 0 W/m² | - |
| 1777261168 | 25° C | 92% | 1013 hPa | 0 mm | - | 0 W/m² | - |
| 1777260867 | 25° C | 92% | 1013.2 hPa | 0 mm | - | 0 W/m² | - |
| 1777260564 | 25° C | 91% | 1013 hPa | 0 mm | - | 0 W/m² | - |
| 1777260259 | 25° C | 91% | 1013 hPa | 0 mm | - | 0 W/m² | - |
| 1777259955 | 25° C | 91% | 1013.2 hPa | 0 mm | - | 0 W/m² | - |
| 1777259350 | 25° C | 91% | 1013.1 hPa | 0 mm | - | 0 W/m² | - |
| 1777258440 | 25° C | 91% | 1013 hPa | 0 mm | - | 0 W/m² | - |
| 1777258136 | 25° C | 91% | 1012.7 hPa | 0 mm | - | 0 W/m² | - |
| 1777257834 | 25° C | 91% | 1012.6 hPa | 0 mm | - | 0 W/m² | - |
| 1777257530 | 25° C | 91% | 1012.6 hPa | 0 mm | - | 0 W/m² | - |
| 1777235703 | 28.89° C | 79% | 1012.9 hPa | 0 mm | - | 555 W/m² | - |
| 1777233879 | 28.33° C | 81% | 1013.2 hPa | 0 mm | - | 490 W/m² | - |
| 1777233576 | 28.33° C | 81% | 1013.2 hPa | 0 mm | - | 476 W/m² | - |
| 1777230849 | 25.56° C | 92% | 1013.8 hPa | 0 mm | - | 184 W/m² | - |
| 1777224477 | 26.11° C | 90% | 1014.4 hPa | 0 mm | - | 110 W/m² | - |
| 1777222658 | 26.67° C | 89% | 1014.4 hPa | 0 mm | - | 139 W/m² | - |
| 1777220230 | 26.67° C | 89% | 1014.1 hPa | 0 mm | - | 194 W/m² | - |
| 1777219016 | 26.67° C | 89% | 1013.9 hPa | 0 mm | - | 245 W/m² | - |
| 1777218407 | 26.67° C | 88% | 1013.9 hPa | 0 mm | - | 111 W/m² | - |
| 1777217799 | 26.67° C | 88% | 1013.7 hPa | 0 mm | - | 203 W/m² | - |
* Rain latest hour (hover to see other rain measurements)
** Current wind speed in m/s (hover to see current wind gust speed)